sensor_id;sensor_type;location;lat;lon;timestamp;temperature;humidity
35497;DHT22;21609;49.298;6.844;2023-02-18T00:01:54;17.60;53.30
35497;DHT22;21609;49.298;6.844;2023-02-18T00:04:20;17.70;52.80
35497;DHT22;21609;49.298;6.844;2023-02-18T00:06:46;17.70;52.80
35497;DHT22;21609;49.298;6.844;2023-02-18T00:09:12;17.60;52.80
35497;DHT22;21609;49.298;6.844;2023-02-18T00:11:38;17.60;52.80
35497;DHT22;21609;49.298;6.844;2023-02-18T00:14:07;17.60;52.80
35497;DHT22;21609;49.298;6.844;2023-02-18T00:16:35;17.60;52.80
35497;DHT22;21609;49.298;6.844;2023-02-18T00:19:03;17.60;52.80
35497;DHT22;21609;49.298;6.844;2023-02-18T00:21:29;17.60;52.80
35497;DHT22;21609;49.298;6.844;2023-02-18T00:23:55;17.60;52.80
35497;DHT22;21609;49.298;6.844;2023-02-18T00:26:20;17.60;52.80
35497;DHT22;21609;49.298;6.844;2023-02-18T00:28:47;17.60;52.90
35497;DHT22;21609;49.298;6.844;2023-02-18T00:31:16;17.60;52.80
35497;DHT22;21609;49.298;6.844;2023-02-18T00:33:42;17.60;52.80
35497;DHT22;21609;49.298;6.844;2023-02-18T00:36:11;17.60;52.90
35497;DHT22;21609;49.298;6.844;2023-02-18T00:38:37;17.60;52.90
35497;DHT22;21609;49.298;6.844;2023-02-18T00:41:03;17.60;52.90
35497;DHT22;21609;49.298;6.844;2023-02-18T00:43:29;17.50;52.90
35497;DHT22;21609;49.298;6.844;2023-02-18T00:45:54;17.50;52.90
35497;DHT22;21609;49.298;6.844;2023-02-18T00:48:21;17.50;52.90
35497;DHT22;21609;49.298;6.844;2023-02-18T00:50:47;17.50;52.90
35497;DHT22;21609;49.298;6.844;2023-02-18T00:53:13;17.50;52.90
35497;DHT22;21609;49.298;6.844;2023-02-18T00:55:42;17.50;52.90
35497;DHT22;21609;49.298;6.844;2023-02-18T00:58:09;17.50;52.90
35497;DHT22;21609;49.298;6.844;2023-02-18T01:00:35;17.50;52.90
35497;DHT22;21609;49.298;6.844;2023-02-18T01:03:01;17.50;52.90
35497;DHT22;21609;49.298;6.844;2023-02-18T01:05:26;17.50;52.90
35497;DHT22;21609;49.298;6.844;2023-02-18T01:07:52;17.50;52.90
35497;DHT22;21609;49.298;6.844;2023-02-18T01:10:17;17.50;52.90
35497;DHT22;21609;49.298;6.844;2023-02-18T01:12:43;17.50;52.90
35497;DHT22;21609;49.298;6.844;2023-02-18T01:15:10;17.50;53.00
35497;DHT22;21609;49.298;6.844;2023-02-18T01:17:38;17.50;53.00
35497;DHT22;21609;49.298;6.844;2023-02-18T01:20:04;17.50;53.00
35497;DHT22;21609;49.298;6.844;2023-02-18T01:22:30;17.50;52.90
35497;DHT22;21609;49.298;6.844;2023-02-18T01:24:55;17.40;52.90
35497;DHT22;21609;49.298;6.844;2023-02-18T01:27:21;17.40;52.90
35497;DHT22;21609;49.298;6.844;2023-02-18T01:29:46;17.40;53.00
35497;DHT22;21609;49.298;6.844;2023-02-18T01:32:12;17.40;53.00
35497;DHT22;21609;49.298;6.844;2023-02-18T01:34:38;17.40;53.00
35497;DHT22;21609;49.298;6.844;2023-02-18T01:37:03;17.40;52.90
35497;DHT22;21609;49.298;6.844;2023-02-18T01:39:29;17.40;53.00
35497;DHT22;21609;49.298;6.844;2023-02-18T01:41:54;17.40;53.00
35497;DHT22;21609;49.298;6.844;2023-02-18T01:44:23;17.40;53.00
35497;DHT22;21609;49.298;6.844;2023-02-18T01:46:49;17.40;53.00
35497;DHT22;21609;49.298;6.844;2023-02-18T01:49:21;17.40;53.00
35497;DHT22;21609;49.298;6.844;2023-02-18T01:51:50;17.40;53.00
35497;DHT22;21609;49.298;6.844;2023-02-18T01:54:33;17.40;53.00
35497;DHT22;21609;49.298;6.844;2023-02-18T01:57:06;17.40;53.10
35497;DHT22;21609;49.298;6.844;2023-02-18T01:59:39;17.40;53.10
35497;DHT22;21609;49.298;6.844;2023-02-18T02:02:09;17.40;53.00
35497;DHT22;21609;49.298;6.844;2023-02-18T02:04:35;17.40;53.00
35497;DHT22;21609;49.298;6.844;2023-02-18T02:07:01;17.40;53.10
35497;DHT22;21609;49.298;6.844;2023-02-18T02:09:28;17.40;53.10
35497;DHT22;21609;49.298;6.844;2023-02-18T02:31:23;17.30;53.10
35497;DHT22;21609;49.298;6.844;2023-02-18T02:36:52;17.30;53.10
35497;DHT22;21609;49.298;6.844;2023-02-18T02:39:41;17.30;53.20
35497;DHT22;21609;49.298;6.844;2023-02-18T02:42:43;17.30;53.20
35497;DHT22;21609;49.298;6.844;2023-02-18T02:45:23;17.30;53.20
35497;DHT22;21609;49.298;6.844;2023-02-18T02:50:55;17.30;53.20
35497;DHT22;21609;49.298;6.844;2023-02-18T02:53:25;17.30;53.20
35497;DHT22;21609;49.298;6.844;2023-02-18T02:55:51;17.30;53.20
35497;DHT22;21609;49.298;6.844;2023-02-18T02:58:19;17.30;53.20
35497;DHT22;21609;49.298;6.844;2023-02-18T03:10:16;17.20;53.20
35497;DHT22;21609;49.298;6.844;2023-02-18T03:13:09;17.20;53.20
35497;DHT22;21609;49.298;6.844;2023-02-18T03:16:10;17.20;53.20
35497;DHT22;21609;49.298;6.844;2023-02-18T03:18:38;17.20;53.20
35497;DHT22;21609;49.298;6.844;2023-02-18T03:21:15;17.20;53.20
35497;DHT22;21609;49.298;6.844;2023-02-18T03:23:57;17.20;53.30
35497;DHT22;21609;49.298;6.844;2023-02-18T03:26:24;17.20;53.20
35497;DHT22;21609;49.298;6.844;2023-02-18T03:28:54;17.20;53.20
35497;DHT22;21609;49.298;6.844;2023-02-18T03:31:23;17.20;53.20
35497;DHT22;21609;49.298;6.844;2023-02-18T03:33:56;17.20;53.30
35497;DHT22;21609;49.298;6.844;2023-02-18T03:36:23;17.20;53.30
35497;DHT22;21609;49.298;6.844;2023-02-18T03:38:58;17.20;53.20
35497;DHT22;21609;49.298;6.844;2023-02-18T03:41:24;17.20;53.20
35497;DHT22;21609;49.298;6.844;2023-02-18T03:43:54;17.20;53.30
35497;DHT22;21609;49.298;6.844;2023-02-18T03:46:25;17.20;53.30
35497;DHT22;21609;49.298;6.844;2023-02-18T03:48:51;17.20;53.30
35497;DHT22;21609;49.298;6.844;2023-02-18T03:51:17;17.20;53.30
35497;DHT22;21609;49.298;6.844;2023-02-18T03:53:44;17.20;53.30
35497;DHT22;21609;49.298;6.844;2023-02-18T03:56:09;17.20;53.20
35497;DHT22;21609;49.298;6.844;2023-02-18T03:58:35;17.10;53.30
35497;DHT22;21609;49.298;6.844;2023-02-18T04:01:01;17.10;53.30
35497;DHT22;21609;49.298;6.844;2023-02-18T04:03:26;17.10;53.30
35497;DHT22;21609;49.298;6.844;2023-02-18T04:05:52;17.10;53.30
35497;DHT22;21609;49.298;6.844;2023-02-18T04:08:17;17.10;53.30
35497;DHT22;21609;49.298;6.844;2023-02-18T04:10:43;17.10;53.30
35497;DHT22;21609;49.298;6.844;2023-02-18T04:13:08;17.10;53.30
35497;DHT22;21609;49.298;6.844;2023-02-18T04:15:34;17.10;53.30
35497;DHT22;21609;49.298;6.844;2023-02-18T04:18:00;17.10;53.30
35497;DHT22;21609;49.298;6.844;2023-02-18T04:20:25;17.10;53.30
35497;DHT22;21609;49.298;6.844;2023-02-18T04:22:51;17.10;53.30
35497;DHT22;21609;49.298;6.844;2023-02-18T04:25:16;17.10;53.30
35497;DHT22;21609;49.298;6.844;2023-02-18T04:27:42;17.10;53.30
35497;DHT22;21609;49.298;6.844;2023-02-18T04:30:08;17.10;53.30
35497;DHT22;21609;49.298;6.844;2023-02-18T04:32:33;17.10;53.30
35497;DHT22;21609;49.298;6.844;2023-02-18T04:34:59;17.10;53.30
35497;DHT22;21609;49.298;6.844;2023-02-18T04:37:24;17.10;53.30
35497;DHT22;21609;49.298;6.844;2023-02-18T04:39:50;17.10;53.30
35497;DHT22;21609;49.298;6.844;2023-02-18T04:42:15;17.10;53.30
35497;DHT22;21609;49.298;6.844;2023-02-18T04:44:41;17.10;53.30
35497;DHT22;21609;49.298;6.844;2023-02-18T04:47:07;17.10;53.30
35497;DHT22;21609;49.298;6.844;2023-02-18T04:49:33;17.10;53.30
35497;DHT22;21609;49.298;6.844;2023-02-18T04:51:59;17.10;53.20
35497;DHT22;21609;49.298;6.844;2023-02-18T04:54:24;17.10;53.30
35497;DHT22;21609;49.298;6.844;2023-02-18T04:56:50;17.10;53.30
35497;DHT22;21609;49.298;6.844;2023-02-18T04:59:15;17.10;53.30
35497;DHT22;21609;49.298;6.844;2023-02-18T05:01:41;17.10;53.40
35497;DHT22;21609;49.298;6.844;2023-02-18T05:04:07;17.10;53.30
35497;DHT22;21609;49.298;6.844;2023-02-18T05:06:32;17.10;53.30
35497;DHT22;21609;49.298;6.844;2023-02-18T05:08:58;17.10;53.30
35497;DHT22;21609;49.298;6.844;2023-02-18T05:11:23;17.10;53.30
35497;DHT22;21609;49.298;6.844;2023-02-18T05:13:49;17.00;53.30
35497;DHT22;21609;49.298;6.844;2023-02-18T05:16:14;17.00;53.30
35497;DHT22;21609;49.298;6.844;2023-02-18T05:18:40;17.00;53.30
35497;DHT22;21609;49.298;6.844;2023-02-18T05:21:05;17.00;53.30
35497;DHT22;21609;49.298;6.844;2023-02-18T05:23:31;17.10;53.30
35497;DHT22;21609;49.298;6.844;2023-02-18T05:25:57;17.00;53.30
35497;DHT22;21609;49.298;6.844;2023-02-18T05:28:22;17.00;53.40
35497;DHT22;21609;49.298;6.844;2023-02-18T05:30:48;17.00;53.30
35497;DHT22;21609;49.298;6.844;2023-02-18T05:33:13;17.00;53.40
35497;DHT22;21609;49.298;6.844;2023-02-18T05:35:39;17.00;53.40
35497;DHT22;21609;49.298;6.844;2023-02-18T05:38:05;17.00;53.40
35497;DHT22;21609;49.298;6.844;2023-02-18T05:40:30;17.00;53.40
35497;DHT22;21609;49.298;6.844;2023-02-18T05:42:56;17.00;53.40
35497;DHT22;21609;49.298;6.844;2023-02-18T05:45:21;17.00;53.40
35497;DHT22;21609;49.298;6.844;2023-02-18T05:47:47;17.00;53.40
35497;DHT22;21609;49.298;6.844;2023-02-18T05:50:13;17.00;53.40
35497;DHT22;21609;49.298;6.844;2023-02-18T05:52:38;17.00;53.40
35497;DHT22;21609;49.298;6.844;2023-02-18T05:55:04;17.00;53.40
35497;DHT22;21609;49.298;6.844;2023-02-18T05:57:30;17.00;53.40
35497;DHT22;21609;49.298;6.844;2023-02-18T05:59:56;17.00;53.40
35497;DHT22;21609;49.298;6.844;2023-02-18T06:02:21;17.00;53.40
35497;DHT22;21609;49.298;6.844;2023-02-18T06:04:47;17.00;53.40
35497;DHT22;21609;49.298;6.844;2023-02-18T06:07:12;17.00;53.40
35497;DHT22;21609;49.298;6.844;2023-02-18T06:09:38;16.90;53.40
35497;DHT22;21609;49.298;6.844;2023-02-18T06:12:04;17.00;53.40
35497;DHT22;21609;49.298;6.844;2023-02-18T06:14:29;17.00;53.50
35497;DHT22;21609;49.298;6.844;2023-02-18T06:16:55;16.90;53.40
35497;DHT22;21609;49.298;6.844;2023-02-18T06:19:20;16.90;53.50
35497;DHT22;21609;49.298;6.844;2023-02-18T06:21:46;16.90;53.50
35497;DHT22;21609;49.298;6.844;2023-02-18T06:24:11;16.90;53.50
35497;DHT22;21609;49.298;6.844;2023-02-18T06:26:37;16.90;53.40
35497;DHT22;21609;49.298;6.844;2023-02-18T06:29:03;16.90;53.50
35497;DHT22;21609;49.298;6.844;2023-02-18T06:31:28;16.90;53.40
35497;DHT22;21609;49.298;6.844;2023-02-18T06:33:54;16.90;53.40
35497;DHT22;21609;49.298;6.844;2023-02-18T06:36:19;16.90;53.50
35497;DHT22;21609;49.298;6.844;2023-02-18T06:38:45;16.90;53.40
35497;DHT22;21609;49.298;6.844;2023-02-18T06:41:12;16.90;53.40
35497;DHT22;21609;49.298;6.844;2023-02-18T06:43:38;17.00;53.40
35497;DHT22;21609;49.298;6.844;2023-02-18T06:46:04;17.00;53.40
35497;DHT22;21609;49.298;6.844;2023-02-18T06:48:29;17.00;53.30
35497;DHT22;21609;49.298;6.844;2023-02-18T06:50:55;17.00;53.20
35497;DHT22;21609;49.298;6.844;2023-02-18T06:53:21;17.00;53.40
35497;DHT22;21609;49.298;6.844;2023-02-18T06:55:46;17.00;53.60
35497;DHT22;21609;49.298;6.844;2023-02-18T06:58:12;17.00;53.60
35497;DHT22;21609;49.298;6.844;2023-02-18T07:00:39;17.00;53.40
35497;DHT22;21609;49.298;6.844;2023-02-18T07:03:05;17.10;53.40
35497;DHT22;21609;49.298;6.844;2023-02-18T07:05:31;17.00;53.40
35497;DHT22;21609;49.298;6.844;2023-02-18T07:07:56;17.00;53.50
35497;DHT22;21609;49.298;6.844;2023-02-18T07:10:22;16.90;53.60
35497;DHT22;21609;49.298;6.844;2023-02-18T07:12:48;16.90;53.60
35497;DHT22;21609;49.298;6.844;2023-02-18T07:15:14;17.00;53.70
35497;DHT22;21609;49.298;6.844;2023-02-18T07:17:39;16.90;53.70
35497;DHT22;21609;49.298;6.844;2023-02-18T07:20:05;16.90;53.70
35497;DHT22;21609;49.298;6.844;2023-02-18T07:22:31;16.90;53.70
35497;DHT22;21609;49.298;6.844;2023-02-18T07:24:57;16.90;53.80
35497;DHT22;21609;49.298;6.844;2023-02-18T07:27:23;16.90;53.70
35497;DHT22;21609;49.298;6.844;2023-02-18T07:29:49;16.90;53.80
35497;DHT22;21609;49.298;6.844;2023-02-18T07:32:16;16.80;53.70
35497;DHT22;21609;49.298;6.844;2023-02-18T07:34:41;16.90;53.70
35497;DHT22;21609;49.298;6.844;2023-02-18T07:37:07;16.90;53.80
35497;DHT22;21609;49.298;6.844;2023-02-18T07:39:39;16.80;53.70
35497;DHT22;21609;49.298;6.844;2023-02-18T07:42:05;16.80;53.70
35497;DHT22;21609;49.298;6.844;2023-02-18T07:44:30;16.80;53.70
35497;DHT22;21609;49.298;6.844;2023-02-18T07:46:56;16.80;53.70
35497;DHT22;21609;49.298;6.844;2023-02-18T07:49:22;16.80;53.70
35497;DHT22;21609;49.298;6.844;2023-02-18T07:51:48;16.80;53.80
35497;DHT22;21609;49.298;6.844;2023-02-18T07:54:14;16.80;53.80
35497;DHT22;21609;49.298;6.844;2023-02-18T07:56:39;16.80;54.30
35497;DHT22;21609;49.298;6.844;2023-02-18T07:59:07;16.80;53.80
35497;DHT22;21609;49.298;6.844;2023-02-18T08:01:33;16.80;53.70
35497;DHT22;21609;49.298;6.844;2023-02-18T08:03:58;16.80;53.80
35497;DHT22;21609;49.298;6.844;2023-02-18T08:06:32;16.80;53.80
35497;DHT22;21609;49.298;6.844;2023-02-18T08:08:58;16.80;53.80
35497;DHT22;21609;49.298;6.844;2023-02-18T08:11:24;16.80;53.80
35497;DHT22;21609;49.298;6.844;2023-02-18T08:13:49;16.80;53.80
35497;DHT22;21609;49.298;6.844;2023-02-18T08:16:16;16.80;53.80
35497;DHT22;21609;49.298;6.844;2023-02-18T08:18:42;16.80;53.80
35497;DHT22;21609;49.298;6.844;2023-02-18T08:21:08;16.80;53.80
35497;DHT22;21609;49.298;6.844;2023-02-18T08:23:34;16.70;53.80
35497;DHT22;21609;49.298;6.844;2023-02-18T08:25:59;16.80;53.80
35497;DHT22;21609;49.298;6.844;2023-02-18T08:28:25;16.70;53.80
35497;DHT22;21609;49.298;6.844;2023-02-18T08:30:52;16.70;53.80
35497;DHT22;21609;49.298;6.844;2023-02-18T08:33:19;16.70;53.80
35497;DHT22;21609;49.298;6.844;2023-02-18T08:35:46;16.80;53.80
35497;DHT22;21609;49.298;6.844;2023-02-18T08:38:12;16.80;53.80
35497;DHT22;21609;49.298;6.844;2023-02-18T08:40:37;16.70;53.80
35497;DHT22;21609;49.298;6.844;2023-02-18T08:43:05;16.70;53.80
35497;DHT22;21609;49.298;6.844;2023-02-18T08:45:31;16.70;53.80
35497;DHT22;21609;49.298;6.844;2023-02-18T08:47:56;16.70;54.40
35497;DHT22;21609;49.298;6.844;2023-02-18T08:50:22;16.70;53.80
35497;DHT22;21609;49.298;6.844;2023-02-18T08:52:51;16.80;53.90
35497;DHT22;21609;49.298;6.844;2023-02-18T08:55:17;16.70;53.80
35497;DHT22;21609;49.298;6.844;2023-02-18T08:57:47;16.70;53.80
35497;DHT22;21609;49.298;6.844;2023-02-18T09:00:14;16.70;53.80
35497;DHT22;21609;49.298;6.844;2023-02-18T09:02:39;16.70;53.80
35497;DHT22;21609;49.298;6.844;2023-02-18T09:05:05;16.70;53.80
35497;DHT22;21609;49.298;6.844;2023-02-18T09:07:31;16.70;53.80
35497;DHT22;21609;49.298;6.844;2023-02-18T09:09:56;16.80;53.80
35497;DHT22;21609;49.298;6.844;2023-02-18T09:12:22;16.70;53.80
35497;DHT22;21609;49.298;6.844;2023-02-18T09:14:47;16.70;53.80
35497;DHT22;21609;49.298;6.844;2023-02-18T09:17:13;16.70;53.80
35497;DHT22;21609;49.298;6.844;2023-02-18T09:19:39;16.70;53.80
35497;DHT22;21609;49.298;6.844;2023-02-18T09:22:04;16.70;53.90
35497;DHT22;21609;49.298;6.844;2023-02-18T09:24:30;16.70;53.90
35497;DHT22;21609;49.298;6.844;2023-02-18T09:26:55;16.70;53.90
35497;DHT22;21609;49.298;6.844;2023-02-18T09:29:21;16.70;53.90
35497;DHT22;21609;49.298;6.844;2023-02-18T09:31:46;16.70;53.90
35497;DHT22;21609;49.298;6.844;2023-02-18T09:34:12;16.70;53.90
35497;DHT22;21609;49.298;6.844;2023-02-18T09:36:38;16.70;53.90
35497;DHT22;21609;49.298;6.844;2023-02-18T09:39:04;16.70;53.90
35497;DHT22;21609;49.298;6.844;2023-02-18T09:41:45;16.70;53.90
35497;DHT22;21609;49.298;6.844;2023-02-18T09:44:24;16.70;53.90
35497;DHT22;21609;49.298;6.844;2023-02-18T09:49:24;16.60;53.80
35497;DHT22;21609;49.298;6.844;2023-02-18T09:51:51;16.60;53.80
35497;DHT22;21609;49.298;6.844;2023-02-18T09:54:19;16.60;53.90
35497;DHT22;21609;49.298;6.844;2023-02-18T09:56:46;16.60;53.90
35497;DHT22;21609;49.298;6.844;2023-02-18T09:59:22;16.60;53.80
35497;DHT22;21609;49.298;6.844;2023-02-18T10:01:51;16.60;53.80
35497;DHT22;21609;49.298;6.844;2023-02-18T10:06:51;16.70;53.90
35497;DHT22;21609;49.298;6.844;2023-02-18T10:09:27;16.60;53.80
35497;DHT22;21609;49.298;6.844;2023-02-18T10:12:21;16.60;53.80
35497;DHT22;21609;49.298;6.844;2023-02-18T10:14:50;16.70;53.80
35497;DHT22;21609;49.298;6.844;2023-02-18T10:17:16;16.60;53.80
35497;DHT22;21609;49.298;6.844;2023-02-18T10:19:45;16.60;53.80
35497;DHT22;21609;49.298;6.844;2023-02-18T10:22:13;16.70;53.90
35497;DHT22;21609;49.298;6.844;2023-02-18T10:27:22;16.60;53.80
35497;DHT22;21609;49.298;6.844;2023-02-18T10:29:48;16.60;53.80
35497;DHT22;21609;49.298;6.844;2023-02-18T10:32:23;16.60;53.80
35497;DHT22;21609;49.298;6.844;2023-02-18T10:43:15;16.60;53.80
35497;DHT22;21609;49.298;6.844;2023-02-18T10:46:25;16.60;53.80
35497;DHT22;21609;49.298;6.844;2023-02-18T10:51:23;16.60;53.80
35497;DHT22;21609;49.298;6.844;2023-02-18T10:53:51;16.60;53.80
35497;DHT22;21609;49.298;6.844;2023-02-18T10:56:40;16.60;53.80
35497;DHT22;21609;49.298;6.844;2023-02-18T11:01:43;16.60;53.90
35497;DHT22;21609;49.298;6.844;2023-02-18T11:04:17;16.60;53.80
35497;DHT22;21609;49.298;6.844;2023-02-18T11:06:46;16.60;53.90
35497;DHT22;21609;49.298;6.844;2023-02-18T11:12:19;16.60;53.80
35497;DHT22;21609;49.298;6.844;2023-02-18T11:14:49;16.60;53.80
35497;DHT22;21609;49.298;6.844;2023-02-18T11:17:25;16.60;53.90
35497;DHT22;21609;49.298;6.844;2023-02-18T11:20:02;16.60;53.80
35497;DHT22;21609;49.298;6.844;2023-02-18T11:22:31;16.60;53.80
35497;DHT22;21609;49.298;6.844;2023-02-18T11:24:59;16.70;53.80
35497;DHT22;21609;49.298;6.844;2023-02-18T11:27:37;16.70;54.40
35497;DHT22;21609;49.298;6.844;2023-02-18T11:32:41;16.70;53.80
35497;DHT22;21609;49.298;6.844;2023-02-18T11:35:17;16.70;53.80
35497;DHT22;21609;49.298;6.844;2023-02-18T11:37:44;16.70;53.80
35497;DHT22;21609;49.298;6.844;2023-02-18T11:40:25;16.70;53.80
35497;DHT22;21609;49.298;6.844;2023-02-18T11:43:02;16.80;53.80
35497;DHT22;21609;49.298;6.844;2023-02-18T11:45:31;16.80;53.80
35497;DHT22;21609;49.298;6.844;2023-02-18T11:48:15;16.80;53.80
35497;DHT22;21609;49.298;6.844;2023-02-18T11:50:41;16.80;53.80
35497;DHT22;21609;49.298;6.844;2023-02-18T11:53:29;16.80;53.80
35497;DHT22;21609;49.298;6.844;2023-02-18T11:55:57;16.80;53.70
35497;DHT22;21609;49.298;6.844;2023-02-18T11:58:24;16.90;53.60
35497;DHT22;21609;49.298;6.844;2023-02-18T12:00:54;17.00;53.50
35497;DHT22;21609;49.298;6.844;2023-02-18T12:03:29;17.00;53.50
35497;DHT22;21609;49.298;6.844;2023-02-18T12:05:59;17.10;53.40
35497;DHT22;21609;49.298;6.844;2023-02-18T12:08:28;17.10;53.40
35497;DHT22;21609;49.298;6.844;2023-02-18T12:11:05;17.20;53.50
35497;DHT22;21609;49.298;6.844;2023-02-18T12:16:28;17.30;53.50
35497;DHT22;21609;49.298;6.844;2023-02-18T12:21:44;17.40;53.30
35497;DHT22;21609;49.298;6.844;2023-02-18T12:24:51;17.40;53.20
35497;DHT22;21609;49.298;6.844;2023-02-18T12:27:36;17.30;53.20
35497;DHT22;21609;49.298;6.844;2023-02-18T12:30:35;17.30;53.40
35497;DHT22;21609;49.298;6.844;2023-02-18T12:41:29;17.30;53.50
35497;DHT22;21609;49.298;6.844;2023-02-18T12:50:14;17.20;53.50
35497;DHT22;21609;49.298;6.844;2023-02-18T12:52:44;17.20;53.60
35497;DHT22;21609;49.298;6.844;2023-02-18T13:03:49;17.30;53.50
35497;DHT22;21609;49.298;6.844;2023-02-18T13:14:56;17.10;53.60
35497;DHT22;21609;49.298;6.844;2023-02-18T13:17:25;17.10;53.60
35497;DHT22;21609;49.298;6.844;2023-02-18T13:19:55;17.10;53.70
35497;DHT22;21609;49.298;6.844;2023-02-18T13:22:23;17.10;53.70
35497;DHT22;21609;49.298;6.844;2023-02-18T13:24:50;17.10;53.70
35497;DHT22;21609;49.298;6.844;2023-02-18T13:35:45;17.10;53.80
35497;DHT22;21609;49.298;6.844;2023-02-18T13:41:12;17.30;54.40
35497;DHT22;21609;49.298;6.844;2023-02-18T13:43:38;17.30;53.50
35497;DHT22;21609;49.298;6.844;2023-02-18T13:46:11;17.30;53.40
35497;DHT22;21609;49.298;6.844;2023-02-18T13:51:11;17.30;53.50
35497;DHT22;21609;49.298;6.844;2023-02-18T13:53:40;17.30;53.40
35497;DHT22;21609;49.298;6.844;2023-02-18T13:56:20;17.30;53.40
35497;DHT22;21609;49.298;6.844;2023-02-18T13:58:58;17.30;53.50
35497;DHT22;21609;49.298;6.844;2023-02-18T14:01:41;17.30;53.50
35497;DHT22;21609;49.298;6.844;2023-02-18T14:09:59;17.20;53.50
35497;DHT22;21609;49.298;6.844;2023-02-18T14:15:00;17.20;53.60
35497;DHT22;21609;49.298;6.844;2023-02-18T14:17:31;17.20;53.60
35497;DHT22;21609;49.298;6.844;2023-02-18T14:25:21;17.10;53.60
35497;DHT22;21609;49.298;6.844;2023-02-18T14:27:41;17.10;53.60
35497;DHT22;21609;49.298;6.844;2023-02-18T14:30:39;17.10;53.70
35497;DHT22;21609;49.298;6.844;2023-02-18T14:33:05;17.10;53.60
35497;DHT22;21609;49.298;6.844;2023-02-18T14:35:52;17.10;53.60
35497;DHT22;21609;49.298;6.844;2023-02-18T14:44:06;17.00;53.80
35497;DHT22;21609;49.298;6.844;2023-02-18T14:46:48;17.00;53.70
35497;DHT22;21609;49.298;6.844;2023-02-18T14:51:49;17.00;53.80
35497;DHT22;21609;49.298;6.844;2023-02-18T14:54:20;17.00;53.80
35497;DHT22;21609;49.298;6.844;2023-02-18T14:56:56;17.00;53.80
35497;DHT22;21609;49.298;6.844;2023-02-18T14:59:27;17.00;53.80
35497;DHT22;21609;49.298;6.844;2023-02-18T15:01:54;16.90;53.80
35497;DHT22;21609;49.298;6.844;2023-02-18T15:04:21;16.90;53.80
35497;DHT22;21609;49.298;6.844;2023-02-18T15:07:01;16.90;53.80
35497;DHT22;21609;49.298;6.844;2023-02-18T15:09:27;16.90;53.80
35497;DHT22;21609;49.298;6.844;2023-02-18T15:12:04;16.90;53.80
35497;DHT22;21609;49.298;6.844;2023-02-18T15:14:37;16.90;53.80
35497;DHT22;21609;49.298;6.844;2023-02-18T15:17:06;16.90;53.80
35497;DHT22;21609;49.298;6.844;2023-02-18T15:19:42;16.90;53.90
35497;DHT22;21609;49.298;6.844;2023-02-18T15:22:18;16.90;53.90
35497;DHT22;21609;49.298;6.844;2023-02-18T15:24:44;16.90;53.80
35497;DHT22;21609;49.298;6.844;2023-02-18T15:27:18;16.90;53.90
35497;DHT22;21609;49.298;6.844;2023-02-18T15:29:52;16.90;53.80
35497;DHT22;21609;49.298;6.844;2023-02-18T15:32:24;16.90;53.80
35497;DHT22;21609;49.298;6.844;2023-02-18T15:34:53;16.90;53.80
35497;DHT22;21609;49.298;6.844;2023-02-18T15:37:20;16.80;54.50
35497;DHT22;21609;49.298;6.844;2023-02-18T15:39:47;16.90;53.90
35497;DHT22;21609;49.298;6.844;2023-02-18T15:42:31;16.80;53.90
35497;DHT22;21609;49.298;6.844;2023-02-18T15:45:16;16.80;53.90
35497;DHT22;21609;49.298;6.844;2023-02-18T15:47:44;16.80;53.90
35497;DHT22;21609;49.298;6.844;2023-02-18T15:50:16;16.80;53.90
35497;DHT22;21609;49.298;6.844;2023-02-18T15:52:43;16.80;53.90
35497;DHT22;21609;49.298;6.844;2023-02-18T15:57:45;16.80;53.90
35497;DHT22;21609;49.298;6.844;2023-02-18T16:00:15;16.80;53.90
35497;DHT22;21609;49.298;6.844;2023-02-18T16:03:11;16.80;53.90
35497;DHT22;21609;49.298;6.844;2023-02-18T16:05:38;16.70;53.90
35497;DHT22;21609;49.298;6.844;2023-02-18T16:08:15;16.80;54.00
35497;DHT22;21609;49.298;6.844;2023-02-18T16:10:45;16.70;53.90
35497;DHT22;21609;49.298;6.844;2023-02-18T16:13:15;16.70;53.90
35497;DHT22;21609;49.298;6.844;2023-02-18T16:15:43;16.70;53.90
35497;DHT22;21609;49.298;6.844;2023-02-18T16:18:38;16.70;53.90
35497;DHT22;21609;49.298;6.844;2023-02-18T16:23:50;16.70;54.00
35497;DHT22;21609;49.298;6.844;2023-02-18T16:29:20;16.70;54.00
35497;DHT22;21609;49.298;6.844;2023-02-18T16:31:46;16.70;54.10
35497;DHT22;21609;49.298;6.844;2023-02-18T16:34:12;16.70;54.00
35497;DHT22;21609;49.298;6.844;2023-02-18T16:36:38;16.70;54.00
35497;DHT22;21609;49.298;6.844;2023-02-18T16:39:24;16.70;54.10
35497;DHT22;21609;49.298;6.844;2023-02-18T16:41:49;16.70;54.00
35497;DHT22;21609;49.298;6.844;2023-02-18T16:44:15;16.70;54.10
35497;DHT22;21609;49.298;6.844;2023-02-18T16:46:41;16.60;54.00
35497;DHT22;21609;49.298;6.844;2023-02-18T16:49:11;16.60;54.00
35497;DHT22;21609;49.298;6.844;2023-02-18T16:51:38;16.60;54.10
35497;DHT22;21609;49.298;6.844;2023-02-18T16:54:04;16.70;54.50
35497;DHT22;21609;49.298;6.844;2023-02-18T16:56:31;16.70;54.00
35497;DHT22;21609;49.298;6.844;2023-02-18T16:58:57;16.70;54.00
35497;DHT22;21609;49.298;6.844;2023-02-18T17:01:27;16.70;54.00
35497;DHT22;21609;49.298;6.844;2023-02-18T17:03:54;16.70;54.10
35497;DHT22;21609;49.298;6.844;2023-02-18T17:06:20;16.70;54.00
35497;DHT22;21609;49.298;6.844;2023-02-18T17:08:46;16.60;54.00
35497;DHT22;21609;49.298;6.844;2023-02-18T17:11:24;16.60;54.00
35497;DHT22;21609;49.298;6.844;2023-02-18T17:13:52;16.60;54.00
35497;DHT22;21609;49.298;6.844;2023-02-18T17:16:18;16.60;54.00
35497;DHT22;21609;49.298;6.844;2023-02-18T17:18:44;16.60;54.00
35497;DHT22;21609;49.298;6.844;2023-02-18T17:21:15;16.60;54.00
35497;DHT22;21609;49.298;6.844;2023-02-18T17:23:42;16.70;53.90
35497;DHT22;21609;49.298;6.844;2023-02-18T17:28:45;16.60;53.90
35497;DHT22;21609;49.298;6.844;2023-02-18T17:31:30;16.60;53.90
35497;DHT22;21609;49.298;6.844;2023-02-18T17:33:59;16.70;54.00
35497;DHT22;21609;49.298;6.844;2023-02-18T17:36:25;16.60;53.90
35497;DHT22;21609;49.298;6.844;2023-02-18T17:38:51;16.60;53.90
35497;DHT22;21609;49.298;6.844;2023-02-18T17:41:16;16.60;53.80
35497;DHT22;21609;49.298;6.844;2023-02-18T17:43:42;16.70;54.00
35497;DHT22;21609;49.298;6.844;2023-02-18T17:46:12;16.60;53.80
35497;DHT22;21609;49.298;6.844;2023-02-18T17:48:39;16.60;53.90
35497;DHT22;21609;49.298;6.844;2023-02-18T17:51:05;16.60;53.90
35497;DHT22;21609;49.298;6.844;2023-02-18T17:53:32;16.60;53.90
35497;DHT22;21609;49.298;6.844;2023-02-18T17:55:58;16.60;53.90
35497;DHT22;21609;49.298;6.844;2023-02-18T17:58:24;16.60;53.90
35497;DHT22;21609;49.298;6.844;2023-02-18T18:00:55;16.60;53.90
35497;DHT22;21609;49.298;6.844;2023-02-18T18:03:21;16.60;53.90
35497;DHT22;21609;49.298;6.844;2023-02-18T18:05:48;16.60;53.80
35497;DHT22;21609;49.298;6.844;2023-02-18T18:08:16;16.60;53.80